TimeEDT,TemperatureF,Dew PointF,Humidity,Sea Level PressureIn,VisibilityMPH,Wind Direction,Wind SpeedMPH,Gust SpeedMPH,PrecipitationIn,Events,Conditions,WindDirDegrees,DateUTC
12:10 AM,64.4,62.6,94,30.17,8.0,SSE,3.5,-,N/A,,Overcast,160,2006-06-24 04:10:00
12:54 AM,66.0,64.0,93,30.09,7.0,SSW,5.8,-,N/A,,Overcast,200,2006-06-24 04:54:00
1:12 AM,66.2,64.4,94,30.17,5.0,South,4.6,-,N/A,,Overcast,180,2006-06-24 05:12:00
1:54 AM,66.0,64.0,93,30.08,3.0,SSE,3.5,-,N/A,,Overcast,150,2006-06-24 05:54:00
2:04 AM,66.2,64.4,94,30.16,2.5,Calm,Calm,-,N/A,,Overcast,0,2006-06-24 06:04:00
2:11 AM,66.2,64.4,94,30.16,3.0,South,3.5,-,N/A,,Overcast,190,2006-06-24 06:11:00
2:31 AM,66.2,64.4,94,30.16,3.0,SSE,4.6,-,N/A,,Overcast,150,2006-06-24 06:31:00
2:43 AM,66.2,64.4,94,30.15,2.5,Calm,Calm,-,N/A,,Overcast,0,2006-06-24 06:43:00
2:54 AM,66.0,64.0,93,30.09,4.0,SSE,3.5,-,N/A,,Overcast,150,2006-06-24 06:54:00
3:03 AM,66.2,64.4,94,30.15,4.0,South,3.5,-,N/A,,Overcast,170,2006-06-24 07:03:00
3:38 AM,66.2,64.4,94,30.14,4.0,SE,3.5,-,N/A,,Overcast,140,2006-06-24 07:38:00
3:45 AM,66.2,64.4,94,30.14,4.0,SSE,4.6,-,N/A,,Overcast,150,2006-06-24 07:45:00
3:54 AM,64.9,64.0,97,30.08,4.0,SSE,4.6,-,N/A,,Overcast,150,2006-06-24 07:54:00
4:17 AM,64.4,64.4,100,30.12,2.5,Calm,Calm,-,N/A,,Overcast,0,2006-06-24 08:17:00
4:25 AM,64.4,64.4,100,30.12,3.0,Calm,Calm,-,N/A,,Overcast,0,2006-06-24 08:25:00
4:33 AM,64.4,64.4,100,30.12,2.5,Calm,Calm,-,N/A,,Mostly Cloudy,0,2006-06-24 08:33:00
4:54 AM,64.9,64.0,97,30.05,3.0,Calm,Calm,-,N/A,,Mostly Cloudy,0,2006-06-24 08:54:00
5:32 AM,66.2,62.6,88,30.11,4.0,NNE,3.5,-,N/A,,Overcast,30,2006-06-24 09:32:00
5:54 AM,64.9,64.0,97,30.05,3.0,NNW,5.8,-,N/A,,Overcast,330,2006-06-24 09:54:00
6:21 AM,64.4,62.6,94,30.10,2.0,Calm,Calm,-,N/A,,Scattered Clouds,0,2006-06-24 10:21:00
6:54 AM,64.9,63.0,93,30.05,2.0,WNW,3.5,-,N/A,,Mostly Cloudy,300,2006-06-24 10:54:00
7:19 AM,64.4,62.6,94,30.11,3.0,North,4.6,-,N/A,,Overcast,350,2006-06-24 11:19:00
7:26 AM,64.4,62.6,94,30.11,1.0,North,6.9,-,N/A,,Overcast,350,2006-06-24 11:26:00
7:34 AM,64.4,62.6,94,30.11,1.0,NNW,5.8,-,N/A,,Overcast,340,2006-06-24 11:34:00
7:54 AM,66.0,63.0,90,30.06,2.0,North,5.8,-,N/A,,Overcast,350,2006-06-24 11:54:00
7:57 AM,66.2,62.6,88,30.12,2.0,NNW,6.9,-,N/A,,Overcast,340,2006-06-24 11:57:00
8:12 AM,66.2,62.6,88,30.13,3.0,North,4.6,-,N/A,,Scattered Clouds,350,2006-06-24 12:12:00
8:54 AM,68.0,64.0,87,30.09,5.0,NW,5.8,-,N/A,,Partly Cloudy,320,2006-06-24 12:54:00
9:54 AM,70.0,64.0,81,30.10,6.0,Calm,Calm,-,N/A,,Haze,0,2006-06-24 13:54:00
10:54 AM,73.9,64.0,71,30.10,10.0,Variable,3.5,-,N/A,,Clear,0,2006-06-24 14:54:00
11:54 AM,78.1,62.1,58,30.09,10.0,Calm,Calm,-,N/A,,Clear,0,2006-06-24 15:54:00
12:54 PM,81.0,62.1,52,30.07,10.0,Variable,4.6,-,N/A,,Clear,0,2006-06-24 16:54:00
1:54 PM,82.9,61.0,47,30.05,10.0,Calm,Calm,-,N/A,,Clear,0,2006-06-24 17:54:00
2:54 PM,82.0,63.0,52,30.02,10.0,Variable,6.9,-,N/A,,Mostly Cloudy,0,2006-06-24 18:54:00
3:54 PM,78.1,64.9,64,30.02,10.0,ESE,9.2,-,N/A,,Mostly Cloudy,120,2006-06-24 19:54:00
4:47 PM,73.4,62.6,69,30.09,10.0,North,12.7,-,N/A,,Overcast,350,2006-06-24 20:47:00
4:54 PM,72.0,64.0,76,30.02,10.0,North,16.1,-,0.00,Rain,Light Rain,350,2006-06-24 20:54:00
5:10 PM,69.8,66.2,88,30.10,7.0,NE,5.8,-,0.02,Rain,Light Rain,40,2006-06-24 21:10:00
5:54 PM,69.1,63.0,81,30.03,10.0,Variable,6.9,-,0.02,,Scattered Clouds,0,2006-06-24 21:54:00
6:54 PM,69.1,64.9,87,30.04,10.0,WNW,3.5,-,N/A,,Mostly Cloudy,300,2006-06-24 22:54:00
7:54 PM,69.1,64.9,87,30.04,10.0,Calm,Calm,-,0.00,Rain,Light Rain,0,2006-06-24 23:54:00
8:14 PM,69.8,64.4,83,30.11,9.0,SSE,4.6,-,0.00,Rain,Light Rain,150,2006-06-25 00:14:00
8:45 PM,68.0,64.4,88,30.12,10.0,Calm,Calm,-,0.01,Rain,Light Rain,0,2006-06-25 00:45:00
8:54 PM,69.1,66.0,90,30.05,10.0,ESE,3.5,-,0.01,,Overcast,120,2006-06-25 00:54:00
9:54 PM,68.0,64.9,90,30.05,10.0,Calm,Calm,-,0.00,,Overcast,0,2006-06-25 01:54:00
10:54 PM,66.9,66.0,97,30.05,7.0,Calm,Calm,-,0.05,Rain,Light Rain,0,2006-06-25 02:54:00
11:44 PM,66.2,64.4,94,30.12,5.0,Calm,Calm,-,0.00,,Scattered Clouds,0,2006-06-25 03:44:00
11:54 PM,66.0,64.9,96,30.05,4.0,Calm,Calm,-,0.00,,Mostly Cloudy,0,2006-06-25 03:54:00